aviador You're here:

LFKS Decoded Metar

SOLENZARA in CORSE ISL.
Report Time2018-01-20 05:00:00
UTC Time2018-01-20 05:13:54
Flight Rules vfr VFR
WindVRB at 02 kt
Visibility9999 m
Phenomena:N/A
Clouds:N/A
Expected CloudBase > 4,800 ft AGL from Temp-Dew spread
CeilingNone
Temp11°C (ISA -4)
Dew Point-1°C (44% RH)
AAT8.2°C
QNH1012 hPa
Density Alt-276 ft
Elevation72 ft
Report Wrong Elevation
Raw Report
METAR LFKS 200500Z AUTO VRB02KT CAVOK 11/M01 Q1012=

Extra information for LFKS:More info

Metar Taf Metar & Taf Last 4 Metars F.Rules Stats Wind Profile Meteogram Temp Stats Airport Information Weather charts Add Link Nearby VenuesMetar ALERT Operation Metar Decoded Social comments